Time;durP1;ratioP1;P1;durP2;ratioP2;P2;SDS_P1;SDS_P2;PMS_P1;PMS_P2;Temp;Humidity;BMP_temperature;BMP_pressure;BME280_temperature;BME280_humidity;BME280_pressure;Samples;Min_cycle;Max_cycle;Signal;HPM_P1;HPM_P2
2022/06/30 00:00:03;;;;;;;4.80;4.30;;;20.90;99.90;;;;;;5112866;28;20230;-69
2022/06/30 00:02:29;;;;;;;7.70;4.72;;;20.80;99.90;;;;;;5110973;28;20487;-69
2022/06/30 00:04:54;;;;;;;5.25;4.53;;;20.70;99.90;;;;;;5111140;28;20048;-69
2022/06/30 00:07:20;;;;;;;6.20;4.35;;;20.80;99.90;;;;;;5112584;28;20036;-69
2022/06/30 00:09:45;;;;;;;5.22;4.30;;;20.70;99.90;;;;;;5112537;28;20039;-69
2022/06/30 00:12:11;;;;;;;5.07;4.60;;;20.50;99.90;;;;;;5112320;28;20074;-69
2022/06/30 00:14:37;;;;;;;5.85;4.75;;;20.50;99.90;;;;;;5112246;28;20047;-69
2022/06/30 00:17:03;;;;;;;5.47;4.40;;;20.40;99.90;;;;;;5112235;28;20498;-69
2022/06/30 00:19:29;;;;;;;5.68;4.28;;;20.50;99.90;;;;;;5112343;28;20118;-69
2022/06/30 00:21:55;;;;;;;6.90;4.50;;;20.40;99.90;;;;;;5112174;28;20127;-69
2022/06/30 00:24:20;;;;;;;8.27;4.60;;;20.30;99.90;;;;;;5111979;28;20044;-69
2022/06/30 00:26:46;;;;;;;9.20;4.65;;;20.30;99.90;;;;;;5110849;28;20683;-68
2022/06/30 00:29:11;;;;;;;9.57;4.72;;;20.30;99.90;;;;;;5112293;28;20470;-69
2022/06/30 00:31:38;;;;;;;6.30;4.50;;;20.30;99.90;;;;;;5112110;28;20055;-69
2022/06/30 00:34:03;;;;;;;5.72;4.60;;;20.30;99.90;;;;;;5112006;28;20039;-69
2022/06/30 00:36:29;;;;;;;6.25;4.63;;;20.20;99.90;;;;;;5112208;28;20449;-69
2022/06/30 00:38:55;;;;;;;12.60;4.70;;;20.30;99.90;;;;;;5110586;28;20035;-69
2022/06/30 00:41:20;;;;;;;9.00;5.60;;;20.20;99.90;;;;;;5112045;28;20028;-69
2022/06/30 00:43:47;;;;;;;6.20;5.00;;;20.20;99.90;;;;;;5110132;28;20043;-69
2022/06/30 00:46:14;;;;;;;8.52;4.63;;;20.30;99.90;;;;;;5111609;28;20499;-69
2022/06/30 00:48:41;;;;;;;9.73;5.03;;;20.20;99.90;;;;;;5112025;28;20081;-69
2022/06/30 00:51:07;;;;;;;9.20;4.80;;;20.10;99.90;;;;;;5110309;28;20465;-69
2022/06/30 00:53:37;;;;;;;6.50;4.38;;;20.10;99.90;;;;;;5111145;28;20065;-69
2022/06/30 00:56:04;;;;;;;7.10;4.53;;;20.10;99.90;;;;;;5111391;28;20594;-70
2022/06/30 00:58:37;;;;;;;7.88;4.85;;;20.00;99.90;;;;;;5111502;28;20475;-70
2022/06/30 01:01:04;;;;;;;7.18;4.55;;;20.00;99.90;;;;;;5111770;27;20042;-69
2022/06/30 01:03:31;;;;;;;4.60;4.03;;;19.90;99.90;;;;;;5111196;28;20043;-69
2022/06/30 01:05:59;;;;;;;7.97;4.50;;;19.90;99.90;;;;;;5111382;27;20101;-69
2022/06/30 01:08:25;;;;;;;6.30;4.13;;;19.90;99.90;;;;;;5111410;28;20050;-69
2022/06/30 01:13:35;;;;;;;8.15;4.82;;;19.90;99.90;;;;;;5111104;28;20039;-69
2022/06/30 01:16:01;;;;;;;5.57;4.68;;;19.80;99.90;;;;;;5111287;28;20106;-69
2022/06/30 01:18:27;;;;;;;5.32;4.20;;;19.70;99.90;;;;;;5111378;28;20488;-69
2022/06/30 01:20:52;;;;;;;6.85;4.50;;;19.70;99.90;;;;;;5109787;28;20095;-69
2022/06/30 01:23:18;;;;;;;6.72;4.63;;;19.80;99.90;;;;;;5109513;28;20046;-69
2022/06/30 01:25:45;;;;;;;6.75;4.40;;;19.70;99.90;;;;;;5110947;28;20356;-69
2022/06/30 01:28:10;;;;;;;4.95;4.25;;;19.70;99.90;;;;;;5111350;28;20540;-69
2022/06/30 01:30:36;;;;;;;6.32;5.05;;;19.60;99.90;;;;;;5111237;28;20126;-69
2022/06/30 01:33:02;;;;;;;7.65;4.63;;;19.60;99.90;;;;;;5109394;28;20119;-69
2022/06/30 01:35:27;;;;;;;7.25;4.30;;;19.70;99.90;;;;;;5109813;28;20047;-69
2022/06/30 01:37:58;;;;;;;8.13;4.28;;;19.70;99.90;;;;;;5110851;28;20035;-69
2022/06/30 01:40:26;;;;;;;5.65;4.00;;;19.70;99.90;;;;;;5110889;28;20079;-69
2022/06/30 01:42:51;;;;;;;6.63;4.05;;;19.60;99.90;;;;;;5110820;28;20043;-69
2022/06/30 01:45:18;;;;;;;4.85;4.28;;;19.60;99.90;;;;;;5110773;28;20050;-69
2022/06/30 01:47:44;;;;;;;5.78;4.55;;;19.70;99.90;;;;;;5109368;28;20050;-67
2022/06/30 01:50:13;;;;;;;10.52;4.40;;;19.70;99.90;;;;;;5110810;28;20031;-69
2022/06/30 01:52:39;;;;;;;8.82;4.32;;;19.70;99.90;;;;;;5110554;28;20035;-69
2022/06/30 01:55:06;;;;;;;5.32;4.50;;;19.60;99.90;;;;;;5110509;28;20044;-69
2022/06/30 01:57:32;;;;;;;7.22;5.07;;;19.60;99.90;;;;;;5110885;28;20047;-69
2022/06/30 01:59:58;;;;;;;6.40;4.30;;;19.60;99.90;;;;;;5110737;28;20508;-69
2022/06/30 02:02:23;;;;;;;6.40;4.47;;;19.60;99.90;;;;;;5108984;28;20077;-70
2022/06/30 02:04:51;;;;;;;6.63;4.20;;;19.60;99.90;;;;;;5112932;28;20100;-69
2022/06/30 02:07:21;;;;;;;5.38;4.65;;;19.60;99.90;;;;;;5114811;28;20564;-69
2022/06/30 02:09:50;;;;;;;4.82;4.32;;;19.50;99.90;;;;;;5115087;27;20110;-69
2022/06/30 02:15:24;;;;;;;6.85;4.85;;;19.50;99.90;;;;;;5074925;28;20054;-69
2022/06/30 02:17:53;;;;;;;5.13;4.63;;;19.40;99.90;;;;;;5074713;28;20058;-69
2022/06/30 02:20:26;;;;;;;5.03;4.53;;;19.40;99.90;;;;;;5091601;28;20746;-70
2022/06/30 02:23:00;;;;;;;6.32;4.50;;;19.40;99.90;;;;;;5074380;28;20044;-69
2022/06/30 02:25:29;;;;;;;5.88;4.60;;;19.30;99.90;;;;;;5091532;28;20044;-69
2022/06/30 02:27:55;;;;;;;6.28;4.50;;;19.30;99.90;;;;;;5074693;28;20048;-69
2022/06/30 02:30:21;;;;;;;5.05;4.55;;;19.30;99.90;;;;;;5091456;28;20040;-69
2022/06/30 02:32:47;;;;;;;4.80;4.30;;;19.30;99.90;;;;;;5074095;28;20094;-69
2022/06/30 02:35:14;;;;;;;6.32;4.60;;;19.20;99.90;;;;;;5074350;28;20075;-69
2022/06/30 02:37:39;;;;;;;7.45;4.60;;;19.10;99.90;;;;;;5074320;28;20122;-69
2022/06/30 02:40:06;;;;;;;6.50;4.38;;;19.10;99.90;;;;;;5074235;28;20131;-69
2022/06/30 02:42:31;;;;;;;6.10;4.40;;;19.10;99.90;;;;;;5090893;28;20051;-69
2022/06/30 02:44:57;;;;;;;13.07;5.60;;;19.10;99.90;;;;;;5074448;28;20044;-69
2022/06/30 02:47:33;;;;;;;10.88;5.05;;;18.90;99.90;;;;;;5113034;28;20048;-69
2022/06/30 02:50:03;;;;;;;6.22;4.85;;;18.90;99.90;;;;;;5113055;28;20035;-69
2022/06/30 02:52:30;;;;;;;7.45;5.05;;;18.90;99.90;;;;;;5113847;28;20104;-69
2022/06/30 02:54:56;;;;;;;7.75;4.88;;;18.90;99.90;;;;;;5112680;28;20527;-69
2022/06/30 02:57:21;;;;;;;5.68;4.80;;;18.90;99.90;;;;;;5113798;28;20046;-67
2022/06/30 02:59:47;;;;;;;9.38;5.13;;;18.90;99.90;;;;;;5113514;28;20135;-68
2022/06/30 03:02:12;;;;;;;5.50;4.40;;;18.90;99.90;;;;;;5113747;28;20138;-68
2022/06/30 03:04:38;;;;;;;6.55;4.70;;;18.80;99.90;;;;;;5113630;28;20047;-68
2022/06/30 03:07:04;;;;;;;10.88;5.10;;;18.80;99.90;;;;;;5113694;28;20035;-68
2022/06/30 03:09:29;;;;;;;8.63;4.75;;;18.70;99.90;;;;;;5110883;28;20039;-68
2022/06/30 03:11:55;;;;;;;5.63;4.85;;;18.70;99.90;;;;;;5110666;28;20039;-68
2022/06/30 03:14:20;;;;;;;7.78;4.25;;;18.70;99.90;;;;;;5110211;28;20484;-68
2022/06/30 03:16:46;;;;;;;10.35;4.88;;;18.70;99.90;;;;;;5111038;28;20548;-68
2022/06/30 03:19:12;;;;;;;6.97;5.03;;;18.70;99.90;;;;;;5111774;28;20042;-68
2022/06/30 03:21:37;;;;;;;9.57;4.97;;;18.60;99.90;;;;;;5111479;28;20122;-68
2022/06/30 03:24:03;;;;;;;6.53;4.93;;;18.70;99.90;;;;;;5112306;28;20104;-68
2022/06/30 03:26:29;;;;;;;6.65;4.63;;;18.70;99.90;;;;;;5111998;28;20071;-68
2022/06/30 03:28:54;;;;;;;8.07;4.55;;;18.60;99.90;;;;;;5112912;28;20039;-68
2022/06/30 03:31:20;;;;;;;9.20;4.43;;;18.60;99.90;;;;;;5113425;27;20035;-68
2022/06/30 03:33:45;;;;;;;6.15;4.72;;;18.70;99.90;;;;;;5112605;28;20031;-68
2022/06/30 03:36:11;;;;;;;7.53;4.10;;;18.60;99.90;;;;;;5113526;28;20051;-68
2022/06/30 03:38:36;;;;;;;5.25;4.20;;;18.60;99.90;;;;;;5111858;28;20382;-68
2022/06/30 03:41:02;;;;;;;5.30;4.68;;;18.60;99.90;;;;;;5113266;28;20040;-68
2022/06/30 03:43:28;;;;;;;6.43;4.22;;;18.50;99.90;;;;;;5113076;28;20039;-67
2022/06/30 03:45:53;;;;;;;10.88;4.63;;;18.60;99.90;;;;;;5113076;28;20036;-67
2022/06/30 03:48:19;;;;;;;5.18;4.40;;;18.60;99.90;;;;;;5113179;28;20038;-68
2022/06/30 03:50:44;;;;;;;9.27;4.63;;;18.60;99.90;;;;;;5112990;28;20039;-68
2022/06/30 03:53:10;;;;;;;5.95;4.82;;;18.70;99.90;;;;;;5112600;28;20036;-68
2022/06/30 03:55:39;;;;;;;8.85;4.97;;;18.70;99.90;;;;;;5112617;28;20058;-68
2022/06/30 03:58:06;;;;;;;8.35;4.65;;;18.60;99.90;;;;;;5112641;28;20089;-67
2022/06/30 04:00:32;;;;;;;6.10;4.70;;;18.70;99.90;;;;;;5112853;28;20047;-67
2022/06/30 04:02:57;;;;;;;8.40;4.22;;;18.70;99.90;;;;;;5112528;28;20058;-67
2022/06/30 04:05:23;;;;;;;6.10;4.38;;;18.70;99.90;;;;;;5111103;28;20047;-68
2022/06/30 04:07:48;;;;;;;6.80;4.47;;;18.70;99.90;;;;;;5112537;28;20449;-68
2022/06/30 04:10:14;;;;;;;5.38;4.40;;;18.80;99.90;;;;;;5110987;28;20063;-67
2022/06/30 04:12:40;;;;;;;8.15;4.35;;;18.80;99.90;;;;;;5110868;28;20031;-68
2022/06/30 04:15:07;;;;;;;5.28;4.18;;;18.90;99.90;;;;;;5111053;28;20071;-68
2022/06/30 04:17:33;;;;;;;6.18;4.75;;;19.00;99.90;;;;;;5112363;28;20036;-68
2022/06/30 04:20:03;;;;;;;6.20;5.05;;;19.00;99.90;;;;;;5112428;28;20050;-68
2022/06/30 04:22:28;;;;;;;6.75;4.18;;;19.10;99.90;;;;;;5110562;28;20137;-68
2022/06/30 04:24:54;;;;;;;5.35;4.60;;;19.20;99.90;;;;;;5110710;28;20119;-68
2022/06/30 04:27:20;;;;;;;5.40;4.60;;;19.20;99.90;;;;;;5110379;28;20432;-68
2022/06/30 04:29:45;;;;;;;6.97;5.00;;;19.20;99.90;;;;;;5112355;28;20395;-68
2022/06/30 04:34:55;;;;;;;8.25;4.68;;;19.30;99.90;;;;;;5112101;28;20399;-68
2022/06/30 04:37:21;;;;;;;7.32;5.22;;;19.40;99.90;;;;;;5111957;28;20042;-68
2022/06/30 04:39:46;;;;;;;5.70;4.63;;;19.40;99.90;;;;;;5112111;28;20132;-68
2022/06/30 04:42:12;;;;;;;7.55;4.63;;;19.40;99.90;;;;;;5110465;28;20173;-68
2022/06/30 04:44:37;;;;;;;8.80;5.00;;;19.70;99.90;;;;;;5111678;28;20039;-67
2022/06/30 04:47:03;;;;;;;6.00;4.68;;;19.70;99.90;;;;;;5111823;28;20039;-68
2022/06/30 04:49:29;;;;;;;6.53;4.82;;;19.80;99.90;;;;;;5111733;28;20036;-68
2022/06/30 04:51:54;;;;;;;13.07;6.20;;;19.80;99.90;;;;;;5111678;28;20065;-68
2022/06/30 04:54:20;;;;;;;8.73;6.25;;;19.90;99.90;;;;;;5111195;28;20039;-68
2022/06/30 04:56:45;;;;;;;11.20;8.30;;;20.00;99.90;;;;;;5111504;28;20048;-68
2022/06/30 04:59:11;;;;;;;9.15;7.05;;;20.00;99.90;;;;;;5111674;28;20054;-68
2022/06/30 05:01:36;;;;;;;13.35;8.20;;;20.10;99.90;;;;;;5093187;28;20487;-68
2022/06/30 05:04:02;;;;;;;17.80;9.82;;;20.00;99.90;;;;;;5111097;28;20043;-68
2022/06/30 05:06:28;;;;;;;13.07;8.68;;;19.90;99.90;;;;;;5111447;28;20059;-68
2022/06/30 05:08:53;;;;;;;14.73;10.30;;;19.80;99.90;;;;;;5111387;28;20105;-68
2022/06/30 05:11:19;;;;;;;18.35;9.77;;;19.80;99.90;;;;;;5111542;28;20546;-67
2022/06/30 05:13:44;;;;;;;16.73;9.48;;;20.00;99.90;;;;;;5111072;28;20038;-68
2022/06/30 05:16:10;;;;;;;16.25;10.80;;;20.10;99.90;;;;;;5111388;28;20119;-68
2022/06/30 05:18:36;;;;;;;12.68;9.50;;;20.20;99.90;;;;;;5111323;28;20070;-68
2022/06/30 05:21:01;;;;;;;17.27;10.18;;;20.50;99.90;;;;;;5111214;28;20059;-68
2022/06/30 05:23:27;;;;;;;16.00;10.25;;;20.50;99.90;;;;;;5110840;28;20031;-68
2022/06/30 05:28:37;;;;;;;13.10;8.93;;;20.80;99.90;;;;;;5109695;28;20052;-67
2022/06/30 05:31:02;;;;;;;17.88;9.27;;;20.80;99.90;;;;;;5109698;28;20039;-68
2022/06/30 05:33:28;;;;;;;11.90;8.48;;;20.90;99.90;;;;;;5110665;28;20114;-68
2022/06/30 05:35:54;;;;;;;10.43;8.30;;;20.90;99.90;;;;;;5110784;28;20048;-68
2022/06/30 05:38:20;;;;;;;14.07;7.88;;;20.90;99.90;;;;;;5110302;28;20054;-67
2022/06/30 05:40:46;;;;;;;12.02;7.03;;;20.80;99.90;;;;;;5109323;28;20414;-67
2022/06/30 05:43:13;;;;;;;8.93;6.93;;;21.10;99.90;;;;;;5110727;27;20061;-67
2022/06/30 05:45:42;;;;;;;9.98;6.68;;;21.20;99.90;;;;;;5109375;28;20040;-67
2022/06/30 05:48:08;;;;;;;9.80;6.10;;;21.20;99.90;;;;;;5109365;28;20089;-67
2022/06/30 05:50:34;;;;;;;12.73;5.95;;;21.20;99.90;;;;;;5110776;28;20047;-68
2022/06/30 05:53:00;;;;;;;7.28;6.03;;;21.30;99.90;;;;;;5109168;28;20059;-68
2022/06/30 05:55:25;;;;;;;13.73;6.53;;;21.40;99.90;;;;;;5110768;28;20473;-68
2022/06/30 05:58:01;;;;;;;8.95;5.38;;;21.40;99.90;;;;;;5110795;28;20063;-68
2022/06/30 06:00:28;;;;;;;9.55;5.88;;;21.40;99.90;;;;;;5110672;28;20050;-68
2022/06/30 06:02:54;;;;;;;7.38;5.20;;;21.50;99.90;;;;;;5108866;28;20154;-68
2022/06/30 06:05:20;;;;;;;6.55;5.32;;;21.60;99.90;;;;;;5110578;28;20112;-69
2022/06/30 06:07:45;;;;;;;6.05;5.45;;;21.70;99.90;;;;;;5110738;28;20135;-68
2022/06/30 06:10:13;;;;;;;7.88;6.13;;;21.70;99.90;;;;;;5109685;28;20046;-69
2022/06/30 06:12:39;;;;;;;6.78;5.68;;;21.80;99.90;;;;;;5109070;28;20039;-68
2022/06/30 06:15:05;;;;;;;6.10;5.32;;;21.90;99.90;;;;;;5110448;28;20092;-68
2022/06/30 06:17:31;;;;;;;7.28;5.55;;;21.90;99.90;;;;;;5110415;28;20044;-68
2022/06/30 06:19:57;;;;;;;7.38;5.43;;;21.90;99.90;;;;;;5110705;28;20060;-68
2022/06/30 06:22:23;;;;;;;10.63;6.65;;;22.00;99.90;;;;;;5110024;28;20159;-68
2022/06/30 06:24:49;;;;;;;8.55;6.10;;;22.00;99.90;;;;;;5110410;28;20044;-69
2022/06/30 06:27:14;;;;;;;9.23;6.40;;;22.10;99.90;;;;;;5110454;28;20063;-69
2022/06/30 06:29:40;;;;;;;7.88;5.65;;;22.10;99.90;;;;;;5110410;28;20601;-68
2022/06/30 06:32:06;;;;;;;6.97;5.90;;;22.20;99.90;;;;;;5110184;28;20077;-68
2022/06/30 06:34:31;;;;;;;6.68;5.93;;;22.20;99.90;;;;;;5110097;28;20035;-68
2022/06/30 06:36:57;;;;;;;8.68;5.45;;;22.30;99.90;;;;;;5110340;28;20046;-68
2022/06/30 06:39:22;;;;;;;6.63;5.80;;;22.50;99.90;;;;;;5110251;28;20164;-68
2022/06/30 06:41:48;;;;;;;8.38;6.20;;;22.50;99.90;;;;;;5110137;28;20050;-69
2022/06/30 06:44:13;;;;;;;10.25;5.75;;;22.40;99.90;;;;;;5109673;28;20496;-68
2022/06/30 06:46:39;;;;;;;8.85;6.18;;;22.60;99.90;;;;;;5110008;28;20391;-68
2022/06/30 06:49:07;;;;;;;8.38;5.75;;;22.60;99.90;;;;;;5110372;28;20078;-68
2022/06/30 06:51:33;;;;;;;8.57;5.57;;;22.60;99.90;;;;;;5113422;28;20395;-68
2022/06/30 06:53:59;;;;;;;11.73;6.40;;;22.60;99.90;;;;;;5113404;28;20031;-68
2022/06/30 06:56:25;;;;;;;8.45;6.38;;;22.60;99.90;;;;;;5112277;28;20053;-69
2022/06/30 06:58:50;;;;;;;9.98;6.78;;;22.60;99.90;;;;;;5112357;28;20040;-68
2022/06/30 07:01:16;;;;;;;8.75;6.53;;;22.60;99.90;;;;;;5113734;28;20126;-68
2022/06/30 07:03:42;;;;;;;9.35;6.50;;;22.60;99.90;;;;;;5113588;28;20040;-68
2022/06/30 07:06:08;;;;;;;13.32;6.97;;;22.80;99.90;;;;;;5112176;28;20036;-68
2022/06/30 07:08:34;;;;;;;11.55;6.88;;;22.90;99.90;;;;;;5113794;27;20043;-68
2022/06/30 07:11:02;;;;;;;7.55;6.57;;;22.90;99.90;;;;;;5113583;27;20115;-68
2022/06/30 07:13:28;;;;;;;10.80;7.43;;;23.00;99.90;;;;;;5113159;28;20036;-68
2022/06/30 07:15:54;;;;;;;11.18;6.60;;;23.00;99.90;;;;;;5113132;27;20395;-68
2022/06/30 07:18:20;;;;;;;8.32;6.65;;;23.20;99.90;;;;;;5113592;28;20115;-68
2022/06/30 07:20:46;;;;;;;9.73;6.40;;;23.20;99.90;;;;;;5113259;28;20492;-68
2022/06/30 07:23:11;;;;;;;12.80;7.28;;;23.30;99.90;;;;;;5113352;28;20035;-68
2022/06/30 07:25:37;;;;;;;8.48;6.30;;;23.40;99.90;;;;;;5113430;28;20044;-69
2022/06/30 07:28:03;;;;;;;10.23;6.78;;;23.50;99.90;;;;;;5109483;28;20054;-69
2022/06/30 07:30:29;;;;;;;8.73;6.93;;;23.60;99.90;;;;;;5083184;28;20036;-69
2022/06/30 07:32:54;;;;;;;8.20;6.53;;;23.60;99.90;;;;;;5089668;28;20055;-68
2022/06/30 07:35:20;;;;;;;9.88;6.57;;;23.80;99.90;;;;;;5093036;28;20048;-68
2022/06/30 07:37:46;;;;;;;8.98;7.00;;;23.80;99.90;;;;;;5086649;28;20508;-68
2022/06/30 07:40:12;;;;;;;9.43;6.60;;;23.70;99.90;;;;;;5077607;28;20441;-69
2022/06/30 07:42:39;;;;;;;10.20;7.25;;;23.80;99.90;;;;;;5072571;28;20055;-69
2022/06/30 07:45:05;;;;;;;8.70;7.80;;;23.80;99.90;;;;;;5071002;28;20051;-69
2022/06/30 07:47:31;;;;;;;10.85;7.80;;;23.70;99.90;;;;;;5072625;28;20374;-69
2022/06/30 07:49:57;;;;;;;15.05;6.65;;;23.90;99.90;;;;;;5078412;28;20123;-69
2022/06/30 07:52:22;;;;;;;14.88;7.25;;;24.00;99.90;;;;;;5078807;28;20811;-69
2022/06/30 07:54:50;;;;;;;8.82;7.90;;;24.10;99.90;;;;;;5077760;28;20087;-69
2022/06/30 07:57:19;;;;;;;8.48;6.88;;;24.20;99.90;;;;;;5080651;28;20123;-69
2022/06/30 07:59:45;;;;;;;11.32;6.55;;;24.30;99.90;;;;;;5079286;28;20113;-69
2022/06/30 08:02:11;;;;;;;8.73;7.82;;;24.30;99.90;;;;;;5094680;28;20032;-69
2022/06/30 08:04:37;;;;;;;9.50;8.18;;;24.60;99.90;;;;;;5061716;28;20067;-69
2022/06/30 08:07:03;;;;;;;11.63;8.13;;;24.60;99.90;;;;;;5076253;28;20527;-70
2022/06/30 08:09:30;;;;;;;10.57;8.00;;;24.60;99.90;;;;;;5073456;28;20052;-69
2022/06/30 08:11:55;;;;;;;12.52;9.35;;;24.80;99.90;;;;;;5072688;28;20044;-71
2022/06/30 08:14:22;;;;;;;10.48;8.35;;;24.80;99.90;;;;;;5070971;28;20045;-69
2022/06/30 08:16:48;;;;;;;11.13;8.52;;;24.70;99.90;;;;;;5071875;28;20036;-69
2022/06/30 08:19:15;;;;;;;11.18;9.07;;;25.00;99.90;;;;;;5070373;28;20091;-70
2022/06/30 08:21:40;;;;;;;11.93;8.63;;;25.00;99.90;;;;;;5071483;28;20135;-69
2022/06/30 08:24:06;;;;;;;11.23;8.57;;;25.10;99.90;;;;;;5071578;28;20123;-69
2022/06/30 08:26:31;;;;;;;12.57;9.68;;;25.10;99.90;;;;;;5071796;28;20040;-69
2022/06/30 08:28:58;;;;;;;18.00;10.98;;;25.30;99.90;;;;;;5070273;28;20512;-70
2022/06/30 08:31:23;;;;;;;12.68;8.75;;;25.30;99.90;;;;;;5070622;28;20059;-69
2022/06/30 08:33:50;;;;;;;14.38;9.52;;;25.40;99.90;;;;;;5070166;28;20032;-70
2022/06/30 08:36:17;;;;;;;13.93;9.50;;;25.50;99.90;;;;;;5071401;28;20048;-70
2022/06/30 08:38:42;;;;;;;16.23;10.82;;;25.40;99.90;;;;;;5071447;28;20497;-69
2022/06/30 08:43:53;;;;;;;17.17;9.70;;;25.60;99.90;;;;;;5069927;28;20041;-69
2022/06/30 08:46:22;;;;;;;12.30;10.30;;;25.40;99.90;;;;;;5071403;28;20036;-70
2022/06/30 08:48:48;;;;;;;11.10;8.05;;;25.50;99.90;;;;;;5072041;28;20037;-69
2022/06/30 08:51:15;;;;;;;11.38;8.70;;;25.70;99.90;;;;;;5072125;28;20120;-70
2022/06/30 08:53:52;;;;;;;16.95;10.45;;;25.80;99.90;;;;;;5071108;28;20044;-70
2022/06/30 08:56:18;;;;;;;12.60;10.40;;;25.80;99.90;;;;;;5071239;28;20052;-69
2022/06/30 08:58:45;;;;;;;12.60;11.23;;;25.80;99.90;;;;;;5069765;28;20106;-69
2022/06/30 09:01:11;;;;;;;11.95;9.98;;;25.70;99.90;;;;;;5071013;28;20111;-70
2022/06/30 09:03:38;;;;;;;15.70;10.43;;;25.80;99.90;;;;;;5069284;28;20127;-69
2022/06/30 09:06:05;;;;;;;11.15;9.15;;;25.80;99.90;;;;;;5070695;28;20047;-69
2022/06/30 09:08:30;;;;;;;13.60;10.52;;;25.90;99.90;;;;;;5071016;28;20036;-69
2022/06/30 09:10:56;;;;;;;10.95;9.57;;;26.00;99.90;;;;;;5070998;28;20112;-70
2022/06/30 09:13:23;;;;;;;16.35;10.23;;;26.10;99.90;;;;;;5069142;28;20120;-69
2022/06/30 09:15:49;;;;;;;12.20;9.63;;;26.20;99.90;;;;;;5070703;28;20111;-69
2022/06/30 09:18:26;;;;;;;10.90;9.80;;;26.30;99.90;;;;;;5070903;28;20052;-70
2022/06/30 09:20:53;;;;;;;11.27;8.80;;;26.40;99.90;;;;;;5069359;28;20075;-70
2022/06/30 09:23:26;;;;;;;10.35;8.18;;;26.40;99.90;;;;;;5069171;28;20092;-70
2022/06/30 09:26:02;;;;;;;13.32;8.90;;;26.50;99.90;;;;;;5070715;28;20044;-70
2022/06/30 09:28:51;;;;;;;14.63;9.32;;;26.50;99.90;;;;;;5070601;28;20056;-70
2022/06/30 09:31:38;;;;;;;11.20;8.55;;;26.70;99.90;;;;;;5070734;28;20040;-71
2022/06/30 09:34:19;;;;;;;14.48;9.32;;;26.80;99.90;;;;;;5069925;28;20049;-71
2022/06/30 09:36:50;;;;;;;13.83;9.53;;;27.00;99.90;;;;;;5070461;28;20052;-70
2022/06/30 09:39:17;;;;;;;13.35;10.43;;;27.10;99.90;;;;;;5070697;28;20032;-71
2022/06/30 09:41:44;;;;;;;10.63;9.52;;;27.20;99.90;;;;;;5070578;28;20064;-71
2022/06/30 09:44:16;;;;;;;10.52;9.45;;;27.30;99.90;;;;;;5068894;28;20082;-70
2022/06/30 09:47:02;;;;;;;10.38;9.10;;;27.30;99.90;;;;;;5070267;28;20160;-71
2022/06/30 09:49:47;;;;;;;11.32;9.20;;;27.30;99.90;;;;;;5069151;28;20040;-71
2022/06/30 09:52:25;;;;;;;9.90;8.65;;;27.30;99.90;;;;;;5068995;28;20033;-70
2022/06/30 09:55:04;;;;;;;15.20;8.93;;;27.40;99.90;;;;;;5070214;28;20072;-70
2022/06/30 09:57:32;;;;;;;12.70;9.70;;;27.40;99.90;;;;;;5070143;28;20488;-71
2022/06/30 10:00:08;;;;;;;13.27;9.05;;;27.50;99.90;;;;;;5052251;28;20055;-70
2022/06/30 10:02:39;;;;;;;11.73;10.27;;;27.60;99.90;;;;;;5069858;28;20040;-70
2022/06/30 10:05:07;;;;;;;15.13;10.13;;;27.60;99.90;;;;;;5069842;28;20041;-70
2022/06/30 10:07:37;;;;;;;10.70;9.57;;;27.60;99.90;;;;;;5068672;28;20043;-70
2022/06/30 10:10:06;;;;;;;13.70;11.80;;;27.70;99.90;;;;;;5068499;28;20045;-70
2022/06/30 10:12:32;;;;;;;16.13;10.18;;;27.60;99.90;;;;;;5068493;28;20123;-70
2022/06/30 10:14:57;;;;;;;11.88;7.82;;;27.60;99.90;;;;;;5068640;28;20043;-71
2022/06/30 10:17:31;;;;;;;14.73;7.20;;;27.60;99.90;;;;;;5068920;28;20124;-70
2022/06/30 10:19:57;;;;;;;11.60;8.60;;;27.80;99.90;;;;;;5070016;28;20493;-70
2022/06/30 10:22:25;;;;;;;9.48;8.07;;;27.80;99.90;;;;;;5068264;28;20782;-70
2022/06/30 10:24:53;;;;;;;8.10;7.30;;;27.90;99.90;;;;;;5070634;28;20459;-70
2022/06/30 10:27:21;;;;;;;10.45;6.05;;;28.00;99.90;;;;;;5072667;28;20048;-71
2022/06/30 10:30:10;;;;;;;12.60;6.32;;;28.00;99.90;;;;;;5074041;28;20036;-71
2022/06/30 10:33:00;;;;;;;8.52;6.20;;;28.20;99.90;;;;;;5072307;28;20044;-70
2022/06/30 10:35:45;;;;;;;10.02;7.05;;;28.20;99.90;;;;;;5074009;28;20086;-69
2022/06/30 10:38:33;;;;;;;10.85;7.45;;;28.20;99.90;;;;;;5072508;28;20044;-71
2022/06/30 10:41:11;;;;;;;8.30;6.63;;;28.40;99.90;;;;;;5072628;28;20128;-70
2022/06/30 10:44:04;;;;;;;7.80;6.82;;;28.30;99.90;;;;;;5072082;28;20059;-69
2022/06/30 10:46:34;;;;;;;9.05;6.70;;;28.30;99.90;;;;;;5073614;28;20040;-70
2022/06/30 10:49:07;;;;;;;7.00;6.30;;;28.40;99.90;;;;;;5073677;28;20032;-69
2022/06/30 10:51:33;;;;;;;7.45;5.38;;;28.40;99.90;;;;;;5071979;28;20500;-72
2022/06/30 10:53:58;;;;;;;11.02;6.25;;;28.40;99.90;;;;;;5072642;28;20051;-70
2022/06/30 10:56:53;;;;;;;6.80;5.55;;;28.60;99.90;;;;;;5072034;28;20080;-70
2022/06/30 10:59:45;;;;;;;8.18;5.47;;;28.50;99.90;;;;;;5073391;28;20041;-70
2022/06/30 11:02:14;;;;;;;11.43;5.30;;;28.50;99.90;;;;;;5070626;28;20044;-70
2022/06/30 11:04:47;;;;;;;8.45;4.78;;;28.40;99.90;;;;;;5073014;28;20103;-70
2022/06/30 11:07:17;;;;;;;6.75;4.75;;;28.70;99.90;;;;;;5071854;28;20046;-71
2022/06/30 11:09:50;;;;;;;12.77;4.53;;;28.70;99.90;;;;;;5073092;28;20119;-70
2022/06/30 11:12:19;;;;;;;5.70;3.88;;;28.70;99.90;;;;;;5071664;28;20063;-71
2022/06/30 11:14:55;;;;;;;10.50;4.43;;;28.70;99.90;;;;;;5071326;28;20048;-71
2022/06/30 11:17:35;;;;;;;7.80;4.03;;;28.80;99.90;;;;;;5071467;28;20044;-71
2022/06/30 11:20:05;;;;;;;12.70;4.90;;;28.90;99.90;;;;;;5072990;28;20083;-69
2022/06/30 11:22:32;;;;;;;6.95;4.43;;;28.90;99.90;;;;;;5072322;28;20076;-71
2022/06/30 11:47:05;;;;;;;5.32;3.92;;;28.90;99.90;;;;;;5112581;28;20050;-69
2022/06/30 11:49:51;;;;;;;7.15;4.82;;;28.90;99.90;;;;;;5111559;28;20118;-68
2022/06/30 11:52:38;;;;;;;6.32;4.50;;;28.90;99.90;;;;;;5112568;28;20039;-69
2022/06/30 11:55:17;;;;;;;7.55;5.88;;;28.80;99.90;;;;;;5112370;27;20051;-68
2022/06/30 11:57:46;;;;;;;7.65;5.15;;;28.60;99.90;;;;;;5112964;27;20036;-70
2022/06/30 12:00:21;;;;;;;8.63;5.03;;;28.60;99.90;;;;;;5112942;28;20411;-70
2022/06/30 12:02:48;;;;;;;11.98;5.20;;;28.70;99.90;;;;;;5111238;28;20502;-71
2022/06/30 12:05:22;;;;;;;9.30;4.70;;;28.80;99.90;;;;;;5112767;28;20039;-71
2022/06/30 12:07:48;;;;;;;8.98;5.13;;;29.00;99.90;;;;;;5111382;28;20043;-69
2022/06/30 12:10:16;;;;;;;11.43;4.80;;;29.00;99.90;;;;;;5112781;28;20127;-69
2022/06/30 12:12:42;;;;;;;8.63;4.72;;;29.00;99.90;;;;;;5110972;28;20039;-69
2022/06/30 12:15:15;;;;;;;7.93;4.70;;;29.10;99.90;;;;;;5112371;28;20032;-69
2022/06/30 12:17:53;;;;;;;7.68;4.47;;;29.20;99.90;;;;;;5112703;28;20122;-69
2022/06/30 12:20:19;;;;;;;9.63;4.55;;;29.40;99.90;;;;;;5112729;28;20107;-70
2022/06/30 12:22:50;;;;;;;7.78;4.57;;;29.40;99.80;;;;;;5111989;28;20039;-70
2022/06/30 12:25:17;;;;;;;6.97;3.85;;;29.30;99.20;;;;;;5112203;28;20051;-69
2022/06/30 12:27:45;;;;;;;8.90;4.43;;;29.60;98.50;;;;;;5112110;28;20151;-69
2022/06/30 12:30:32;;;;;;;7.88;3.75;;;29.50;98.30;;;;;;5112397;28;20114;-69
2022/06/30 12:33:00;;;;;;;11.40;3.60;;;29.40;96.60;;;;;;5111796;28;20495;-69
2022/06/30 12:35:30;;;;;;;6.22;3.35;;;29.40;98.00;;;;;;5110686;28;20076;-70
2022/06/30 12:37:56;;;;;;;5.93;3.90;;;29.50;97.70;;;;;;5111932;28;20092;-69
2022/06/30 12:40:23;;;;;;;6.55;3.40;;;29.50;98.00;;;;;;5112250;28;20031;-69
2022/06/30 12:42:51;;;;;;;5.82;2.65;;;29.80;97.70;;;;;;5111642;28;20043;-69
2022/06/30 12:45:35;;;;;;;5.63;3.15;;;29.70;97.60;;;;;;5110362;28;20495;-69
2022/06/30 12:48:02;;;;;;;11.40;2.92;;;29.80;96.60;;;;;;5110100;28;20042;-69
2022/06/30 12:50:33;;;;;;;6.82;2.83;;;29.90;96.50;;;;;;5111765;28;20118;-69
2022/06/30 12:53:23;;;;;;;9.60;2.10;;;29.80;96.20;;;;;;5110120;28;20126;-69
2022/06/30 12:56:07;;;;;;;5.32;2.03;;;29.90;94.60;;;;;;5110334;28;20090;-69
2022/06/30 12:58:51;;;;;;;2.22;1.90;;;29.90;94.30;;;;;;5110563;28;20044;-69
2022/06/30 13:01:19;;;;;;;4.95;1.70;;;29.80;93.40;;;;;;5110542;27;20437;-70
2022/06/30 13:03:51;;;;;;;2.88;1.85;;;29.90;93.90;;;;;;5110086;28;20074;-69
2022/06/30 13:06:17;;;;;;;3.55;1.33;;;30.00;92.90;;;;;;5111605;28;20044;-70
2022/06/30 13:08:46;;;;;;;6.70;1.95;;;30.00;93.00;;;;;;5111618;28;20055;-69
2022/06/30 13:11:15;;;;;;;4.55;2.25;;;30.00;92.80;;;;;;5110218;28;20088;-70
2022/06/30 13:13:50;;;;;;;6.03;3.05;;;30.10;93.20;;;;;;5111079;28;20067;-70
2022/06/30 13:16:17;;;;;;;9.27;2.88;;;30.20;93.70;;;;;;5111584;28;20419;-70
2022/06/30 13:18:43;;;;;;;5.13;3.17;;;30.00;94.40;;;;;;5111409;28;20096;-70
2022/06/30 13:21:09;;;;;;;7.78;3.10;;;29.80;94.60;;;;;;5111270;28;20043;-71
2022/06/30 13:23:36;;;;;;;10.32;4.25;;;29.80;95.20;;;;;;5110981;28;20040;-69